Time;durP1;ratioP1;P1;durP2;ratioP2;P2;SDS_P1;SDS_P2;PMS_P1;PMS_P2;Temp;Humidity;BMP_temperature;BMP_pressure;BME280_temperature;BME280_humidity;BME280_pressure;Samples;Min_cycle;Max_cycle;Signal;HPM_P1;HPM_P2
2021/12/16 00:08:39;;;;;;;7.18;5.30;;;11.70;99.90;;;;;;4957496;28;20251;-72
2021/12/16 00:33:10;;;;;;;8.50;5.28;;;11.60;99.90;;;;;;4956328;28;20168;-69
2021/12/16 00:35:41;;;;;;;7.65;5.07;;;11.60;99.90;;;;;;4965672;28;20215;-71
2021/12/16 00:38:07;;;;;;;6.20;4.80;;;11.60;99.90;;;;;;4970423;28;20270;-70
2021/12/16 00:40:41;;;;;;;8.00;5.10;;;11.60;99.90;;;;;;4962809;28;20303;-72
2021/12/16 00:43:21;;;;;;;5.80;4.63;;;11.60;99.90;;;;;;4976652;28;20199;-72
2021/12/16 00:54:14;;;;;;;6.55;5.13;;;11.60;99.90;;;;;;4964750;28;20207;-72
2021/12/16 00:56:58;;;;;;;8.15;5.20;;;11.60;99.90;;;;;;4959904;28;20275;-70
2021/12/16 00:59:28;;;;;;;6.50;4.78;;;11.60;99.90;;;;;;4970803;28;20243;-71
2021/12/16 01:02:07;;;;;;;7.47;5.25;;;11.50;99.90;;;;;;4970014;28;20205;-71
2021/12/16 01:07:32;;;;;;;6.55;4.63;;;11.60;99.90;;;;;;4968168;28;20193;-72
2021/12/16 01:34:55;;;;;;;6.82;4.85;;;11.50;99.90;;;;;;4977513;28;20242;-69
2021/12/16 01:46:10;;;;;;;5.88;4.80;;;11.50;99.90;;;;;;4974296;28;20245;-72
2021/12/16 01:49:08;;;;;;;6.43;4.90;;;11.50;99.90;;;;;;4978056;28;20223;-72
2021/12/16 01:51:34;;;;;;;7.45;5.40;;;11.50;99.90;;;;;;4968021;28;20180;-72
2021/12/16 01:57:02;;;;;;;6.10;5.05;;;11.50;99.90;;;;;;4957574;28;20180;-72
2021/12/16 01:59:34;;;;;;;5.53;4.43;;;11.40;99.90;;;;;;4969329;28;20244;-71
2021/12/16 02:02:14;;;;;;;6.53;4.97;;;11.40;99.90;;;;;;4966421;28;20200;-71
2021/12/16 02:05:05;;;;;;;6.07;4.55;;;11.40;99.90;;;;;;4965059;28;20325;-72
2021/12/16 02:10:28;;;;;;;5.85;4.47;;;11.40;99.90;;;;;;4959573;28;20212;-71
2021/12/16 02:32:14;;;;;;;7.03;4.38;;;11.40;99.90;;;;;;4972462;28;20251;-70
2021/12/16 02:34:58;;;;;;;5.65;4.72;;;11.40;99.90;;;;;;4968189;28;20214;-71
2021/12/16 02:37:30;;;;;;;6.55;4.80;;;11.40;99.90;;;;;;4965124;28;20204;-68
2021/12/16 02:39:56;;;;;;;7.47;4.60;;;11.40;99.90;;;;;;4957702;28;20253;-72
2021/12/16 02:42:35;;;;;;;5.28;4.57;;;11.40;99.90;;;;;;4968938;28;20212;-72
2021/12/16 02:50:25;;;;;;;6.05;4.70;;;11.40;99.90;;;;;;4967034;28;20264;-70
2021/12/16 02:52:52;;;;;;;5.90;4.80;;;11.40;99.90;;;;;;4969708;28;20224;-70
2021/12/16 02:55:22;;;;;;;5.82;4.40;;;11.40;99.90;;;;;;4961789;28;20176;-71
2021/12/16 02:57:59;;;;;;;4.90;4.07;;;11.30;99.90;;;;;;4968906;28;20201;-72
2021/12/16 03:00:31;;;;;;;5.00;4.18;;;11.40;99.90;;;;;;4970576;28;20215;-70
2021/12/16 03:03:00;;;;;;;7.68;4.97;;;11.30;99.90;;;;;;4964341;28;20211;-72
2021/12/16 03:05:25;;;;;;;7.78;4.72;;;11.30;99.90;;;;;;4967705;28;20233;-69
2021/12/16 03:07:56;;;;;;;6.22;4.53;;;11.30;99.90;;;;;;4963603;28;20207;-72
2021/12/16 03:13:25;;;;;;;6.35;4.35;;;11.30;99.90;;;;;;4951721;28;20305;-70
2021/12/16 03:16:06;;;;;;;5.10;4.45;;;11.30;99.90;;;;;;4961097;28;20207;-69
2021/12/16 03:19:09;;;;;;;5.68;4.40;;;11.30;99.90;;;;;;4972024;28;20202;-72
2021/12/16 03:21:29;;;;;;;5.28;4.15;;;11.30;99.90;;;;;;4960877;28;20189;-71
2021/12/16 03:37:24;;;;;;;5.78;4.47;;;11.20;99.90;;;;;;4964248;28;20196;-72
2021/12/16 03:39:54;;;;;;;5.10;3.95;;;11.20;99.90;;;;;;4970135;28;20208;-72
2021/12/16 03:42:35;;;;;;;5.68;4.28;;;11.20;99.90;;;;;;4973996;28;20180;-70
2021/12/16 03:48:07;;;;;;;4.63;3.78;;;11.20;99.90;;;;;;4977770;28;20215;-71
2021/12/16 03:50:35;;;;;;;4.22;3.45;;;11.20;99.90;;;;;;4977826;28;20183;-71
2021/12/16 03:53:06;;;;;;;4.50;3.70;;;11.20;99.90;;;;;;4955005;28;20208;-72
2021/12/16 03:55:32;;;;;;;4.93;3.80;;;11.20;99.90;;;;;;4962364;28;20207;-72
2021/12/16 03:57:59;;;;;;;5.28;3.53;;;11.20;99.90;;;;;;4962749;28;20189;-71
2021/12/16 04:00:34;;;;;;;4.85;3.88;;;11.20;99.90;;;;;;4967494;28;20189;-70
2021/12/16 04:03:02;;;;;;;5.70;4.05;;;11.20;99.90;;;;;;4962663;28;20188;-72
2021/12/16 04:05:30;;;;;;;5.10;4.10;;;11.20;99.90;;;;;;4968729;28;20270;-71
2021/12/16 04:07:58;;;;;;;5.25;4.00;;;11.30;99.90;;;;;;4964493;28;20196;-72
2021/12/16 04:10:35;;;;;;;5.75;3.95;;;11.30;99.90;;;;;;4975147;28;20210;-70
2021/12/16 04:13:08;;;;;;;6.70;4.90;;;11.30;99.90;;;;;;4958362;28;20295;-72
2021/12/16 04:15:36;;;;;;;6.25;4.38;;;11.30;99.90;;;;;;4962561;28;20184;-72
2021/12/16 04:18:05;;;;;;;5.57;4.22;;;11.30;99.90;;;;;;4981400;28;20211;-72
2021/12/16 04:20:31;;;;;;;6.88;4.30;;;11.30;99.90;;;;;;4961116;28;20291;-70
2021/12/16 04:22:58;;;;;;;4.55;3.95;;;11.40;99.90;;;;;;4968907;28;21156;-72
2021/12/16 04:25:30;;;;;;;5.35;3.83;;;11.40;99.90;;;;;;4961588;28;20191;-70
2021/12/16 04:28:02;;;;;;;5.00;3.88;;;11.40;99.90;;;;;;4962478;28;20211;-71
2021/12/16 04:30:31;;;;;;;5.07;3.83;;;11.40;99.90;;;;;;4963167;28;20192;-71
2021/12/16 04:33:01;;;;;;;4.85;4.03;;;11.40;99.90;;;;;;4967091;28;20210;-72
2021/12/16 04:35:29;;;;;;;5.10;4.00;;;11.40;99.90;;;;;;4964675;28;20180;-72
2021/12/16 04:37:55;;;;;;;6.28;4.75;;;11.40;99.90;;;;;;4971571;28;20176;-72
2021/12/16 04:40:26;;;;;;;6.28;4.50;;;11.40;99.90;;;;;;4967137;28;20265;-70
2021/12/16 04:43:00;;;;;;;6.85;4.32;;;11.40;99.90;;;;;;4965370;28;20286;-72
2021/12/16 04:45:26;;;;;;;6.50;4.25;;;11.50;99.90;;;;;;4958302;28;20184;-71
2021/12/16 04:47:53;;;;;;;5.72;5.00;;;11.50;99.90;;;;;;4966395;28;20207;-72
2021/12/16 04:50:22;;;;;;;7.60;5.10;;;11.50;99.90;;;;;;4962521;28;20204;-71
2021/12/16 04:52:48;;;;;;;5.15;4.32;;;11.50;99.90;;;;;;4975568;28;20199;-72
2021/12/16 04:55:19;;;;;;;9.02;4.68;;;11.50;99.90;;;;;;4991325;28;20209;-67
2021/12/16 04:57:46;;;;;;;8.43;4.85;;;11.40;99.90;;;;;;4963251;28;20210;-71
2021/12/16 05:00:17;;;;;;;6.93;5.07;;;11.50;99.90;;;;;;4965685;28;20212;-72
2021/12/16 05:02:43;;;;;;;9.82;6.78;;;11.50;99.90;;;;;;4964669;28;20204;-71
2021/12/16 05:05:14;;;;;;;9.68;7.30;;;11.50;99.90;;;;;;4981726;28;20176;-72
2021/12/16 05:07:43;;;;;;;11.95;8.60;;;11.50;99.90;;;;;;4995354;28;20211;-71
2021/12/16 05:10:15;;;;;;;14.13;9.85;;;11.50;99.90;;;;;;4963944;28;20199;-72
2021/12/16 05:12:50;;;;;;;14.60;10.57;;;11.50;99.90;;;;;;4972069;28;20184;-71
2021/12/16 05:15:31;;;;;;;15.25;10.13;;;11.50;99.90;;;;;;4972556;28;20258;-70
2021/12/16 05:18:03;;;;;;;12.85;9.27;;;11.50;99.90;;;;;;4970188;28;20196;-72
2021/12/16 05:20:39;;;;;;;10.45;6.88;;;11.50;99.90;;;;;;4976517;28;20181;-72
2021/12/16 05:28:21;;;;;;;11.95;8.18;;;11.40;99.90;;;;;;4965906;28;20270;-71
2021/12/16 05:30:48;;;;;;;10.48;6.68;;;11.40;99.90;;;;;;4965277;28;20215;-72
2021/12/16 05:33:16;;;;;;;11.65;7.88;;;11.40;99.90;;;;;;4968396;28;20180;-72
2021/12/16 05:35:42;;;;;;;10.57;8.05;;;11.40;99.90;;;;;;4973947;28;20188;-67
2021/12/16 05:38:08;;;;;;;12.88;7.63;;;11.30;99.90;;;;;;4958128;28;20207;-72
2021/12/16 05:40:38;;;;;;;10.23;7.75;;;11.20;99.90;;;;;;4965473;28;20173;-71
2021/12/16 05:43:07;;;;;;;10.73;7.57;;;11.20;99.90;;;;;;4957158;28;20204;-69
2021/12/16 05:45:36;;;;;;;15.50;10.38;;;11.10;99.90;;;;;;4964894;28;20287;-71
2021/12/16 05:48:05;;;;;;;12.38;8.98;;;11.10;99.90;;;;;;4965405;28;20196;-71
2021/12/16 05:50:38;;;;;;;10.48;8.10;;;11.10;99.90;;;;;;4956986;28;20348;-70
2021/12/16 05:53:06;;;;;;;12.32;8.05;;;11.00;99.90;;;;;;4964703;28;20197;-72
2021/12/16 05:55:32;;;;;;;14.77;9.20;;;11.00;99.90;;;;;;4970086;28;20200;-71
2021/12/16 05:58:02;;;;;;;13.40;9.02;;;10.90;99.90;;;;;;4989043;28;20258;-68
2021/12/16 06:00:33;;;;;;;15.10;8.75;;;10.90;99.90;;;;;;4967234;28;20231;-72
2021/12/16 06:02:59;;;;;;;11.85;7.88;;;10.90;99.90;;;;;;4974621;28;20422;-72
2021/12/16 06:05:25;;;;;;;12.82;8.70;;;10.80;99.90;;;;;;4964937;28;20274;-72
2021/12/16 06:07:52;;;;;;;13.75;9.23;;;10.80;99.90;;;;;;4962311;28;20223;-73
2021/12/16 06:13:05;;;;;;;11.13;7.85;;;10.80;99.90;;;;;;4962734;28;20206;-71
2021/12/16 06:15:57;;;;;;;10.50;7.68;;;10.80;99.90;;;;;;4963690;28;20184;-71
2021/12/16 06:29:05;;;;;;;9.60;6.05;;;10.80;99.90;;;;;;4967265;28;20212;-72
2021/12/16 06:31:33;;;;;;;9.80;6.03;;;10.80;99.90;;;;;;4965866;28;20231;-72
2021/12/16 06:34:02;;;;;;;9.32;6.53;;;10.80;99.90;;;;;;4966861;28;20180;-72
2021/12/16 06:36:29;;;;;;;9.10;6.68;;;10.80;99.90;;;;;;4966963;28;20183;-72
2021/12/16 06:38:57;;;;;;;8.85;6.32;;;10.90;99.90;;;;;;4957180;28;20583;-73
2021/12/16 06:41:23;;;;;;;9.93;6.32;;;10.90;99.90;;;;;;4961700;28;20176;-73
2021/12/16 06:43:54;;;;;;;7.78;5.95;;;10.90;99.90;;;;;;4965096;28;20200;-73
2021/12/16 06:46:32;;;;;;;9.82;6.57;;;10.90;99.90;;;;;;4962231;28;20181;-73
2021/12/16 06:49:01;;;;;;;8.32;6.05;;;10.90;99.90;;;;;;4971421;28;20248;-72
2021/12/16 06:51:38;;;;;;;10.68;6.70;;;11.00;99.90;;;;;;4966145;28;20196;-73
2021/12/16 06:54:15;;;;;;;8.38;6.22;;;11.00;99.90;;;;;;4957859;28;20211;-69
2021/12/16 06:57:14;;;;;;;9.68;6.63;;;11.00;99.90;;;;;;4957454;28;20184;-69
2021/12/16 06:59:39;;;;;;;8.88;6.65;;;11.00;99.90;;;;;;4964749;28;20180;-69
2021/12/16 07:04:36;;;;;;;9.80;7.18;;;11.10;99.90;;;;;;4961427;28;20184;-69
2021/12/16 07:07:04;;;;;;;10.75;7.32;;;11.10;99.90;;;;;;4977850;28;20280;-68
2021/12/16 07:09:29;;;;;;;11.07;7.63;;;11.10;99.90;;;;;;4959140;28;20193;-68
2021/12/16 07:11:58;;;;;;;9.98;7.28;;;11.10;99.90;;;;;;4974918;28;20180;-68
2021/12/16 07:14:35;;;;;;;9.75;6.60;;;11.20;99.90;;;;;;4967194;28;20275;-70
2021/12/16 07:17:04;;;;;;;15.13;7.22;;;11.20;99.90;;;;;;4965055;28;20184;-69
2021/12/16 07:19:29;;;;;;;9.75;7.30;;;11.20;99.90;;;;;;4970539;28;20182;-69
2021/12/16 07:21:55;;;;;;;10.48;7.28;;;11.20;99.90;;;;;;4975429;28;20204;-69
2021/12/16 07:24:21;;;;;;;12.68;8.35;;;11.20;99.90;;;;;;4981759;28;20271;-69
2021/12/16 07:26:48;;;;;;;13.65;8.25;;;11.30;99.90;;;;;;4965222;28;20279;-70
2021/12/16 07:29:19;;;;;;;10.40;7.18;;;11.30;99.90;;;;;;4969901;28;20373;-70
2021/12/16 07:31:45;;;;;;;12.20;8.30;;;11.30;99.90;;;;;;4968177;28;20176;-69
2021/12/16 07:34:14;;;;;;;12.73;8.95;;;11.20;99.90;;;;;;4969799;28;20208;-69
2021/12/16 07:36:43;;;;;;;14.32;9.18;;;11.20;99.90;;;;;;4977237;28;20175;-69
2021/12/16 07:39:12;;;;;;;19.73;12.45;;;11.10;99.90;;;;;;4966765;28;20256;-70
2021/12/16 07:41:40;;;;;;;17.35;11.30;;;11.10;99.90;;;;;;4966564;28;20322;-70
2021/12/16 07:44:13;;;;;;;16.50;11.02;;;11.10;99.90;;;;;;4981336;28;20197;-70
2021/12/16 07:46:47;;;;;;;17.13;11.00;;;11.00;99.90;;;;;;4973719;28;20477;-69
2021/12/16 07:49:18;;;;;;;16.20;10.67;;;11.00;99.90;;;;;;4969793;28;20200;-69
2021/12/16 07:51:49;;;;;;;18.52;12.13;;;10.90;99.90;;;;;;4967852;28;20309;-69
2021/12/16 07:54:19;;;;;;;19.60;11.57;;;10.90;99.90;;;;;;4969736;28;20168;-69
2021/12/16 07:56:49;;;;;;;18.60;11.47;;;10.90;99.90;;;;;;4958558;28;20177;-70
2021/12/16 07:59:15;;;;;;;17.57;11.30;;;10.80;99.90;;;;;;4961887;28;20219;-70
2021/12/16 08:01:43;;;;;;;18.77;11.60;;;10.70;99.90;;;;;;4959932;28;20212;-71
2021/12/16 08:04:18;;;;;;;19.07;12.13;;;10.70;99.90;;;;;;4964826;28;20183;-70
2021/12/16 08:06:47;;;;;;;16.03;9.50;;;10.60;99.90;;;;;;4965281;28;20434;-71
2021/12/16 08:09:13;;;;;;;17.23;11.33;;;10.60;99.90;;;;;;4959666;28;20196;-70
2021/12/16 08:11:41;;;;;;;16.70;10.30;;;10.60;99.90;;;;;;4969607;28;20200;-70
2021/12/16 08:14:09;;;;;;;14.40;9.37;;;10.60;99.90;;;;;;4965233;28;20168;-70
2021/12/16 08:16:36;;;;;;;18.33;10.10;;;10.50;99.90;;;;;;4961277;28;20175;-69
2021/12/16 08:19:03;;;;;;;15.33;10.57;;;10.50;99.90;;;;;;4963901;28;20180;-69
2021/12/16 08:21:31;;;;;;;15.03;9.90;;;10.60;99.90;;;;;;4964148;28;20246;-70
2021/12/16 08:24:02;;;;;;;16.55;9.90;;;10.60;99.90;;;;;;4971838;28;20196;-70
2021/12/16 08:26:32;;;;;;;16.05;9.50;;;10.60;99.90;;;;;;4960970;28;20200;-70
2021/12/16 08:28:58;;;;;;;15.50;9.50;;;10.70;99.90;;;;;;4966187;28;20302;-70
2021/12/16 08:31:24;;;;;;;15.10;10.35;;;10.70;99.90;;;;;;4975309;28;20294;-70
2021/12/16 08:33:50;;;;;;;18.25;11.82;;;10.70;99.90;;;;;;4967242;28;20283;-70
2021/12/16 08:36:17;;;;;;;21.52;11.63;;;10.70;99.90;;;;;;4985109;28;20184;-70
2021/12/16 08:38:44;;;;;;;19.52;12.07;;;10.80;99.90;;;;;;4967831;28;20201;-69
2021/12/16 08:41:16;;;;;;;17.73;11.25;;;10.80;99.90;;;;;;4968909;28;20267;-70
2021/12/16 08:43:44;;;;;;;16.73;11.02;;;10.80;99.90;;;;;;4968068;28;20184;-70
2021/12/16 08:46:13;;;;;;;18.37;11.37;;;10.80;99.90;;;;;;4963457;28;20206;-70
2021/12/16 08:48:45;;;;;;;19.30;11.50;;;10.90;99.90;;;;;;4967005;28;20213;-70
2021/12/16 08:51:12;;;;;;;16.73;11.07;;;10.90;99.90;;;;;;4968779;28;20211;-70
2021/12/16 08:53:38;;;;;;;19.05;12.18;;;10.90;99.90;;;;;;4959975;28;20238;-71
2021/12/16 08:56:09;;;;;;;20.15;12.18;;;10.90;99.90;;;;;;4964087;28;20180;-69
2021/12/16 08:58:37;;;;;;;19.33;11.93;;;11.00;99.90;;;;;;4968786;28;20196;-70
2021/12/16 09:01:40;;;;;;;18.40;12.43;;;11.00;99.90;;;;;;4973478;28;20241;-70
2021/12/16 09:04:06;;;;;;;17.38;11.95;;;11.10;99.90;;;;;;5001682;28;20253;-70
2021/12/16 09:06:33;;;;;;;19.17;11.95;;;11.10;99.90;;;;;;4956657;28;20195;-70
2021/12/16 09:08:59;;;;;;;18.75;12.25;;;11.10;99.90;;;;;;4964476;28;20207;-70
2021/12/16 09:11:28;;;;;;;19.92;12.18;;;11.10;99.90;;;;;;4964419;28;20181;-70
2021/12/16 09:13:58;;;;;;;22.35;13.98;;;11.10;99.90;;;;;;4963934;28;20176;-70
2021/12/16 09:16:30;;;;;;;23.27;13.52;;;11.10;99.90;;;;;;4970921;28;20183;-70
2021/12/16 09:18:56;;;;;;;21.77;13.73;;;11.20;99.90;;;;;;4964979;28;20184;-70
2021/12/16 09:21:27;;;;;;;23.20;14.07;;;11.30;99.90;;;;;;4971880;28;20258;-69
2021/12/16 09:23:54;;;;;;;24.50;14.63;;;11.40;99.90;;;;;;4963405;28;20228;-70
2021/12/16 09:26:20;;;;;;;21.05;13.15;;;11.40;99.90;;;;;;4961504;28;20232;-70
2021/12/16 09:28:48;;;;;;;24.48;14.18;;;11.40;99.90;;;;;;4964018;28;20219;-70
2021/12/16 09:31:16;;;;;;;21.52;13.80;;;11.40;99.90;;;;;;4963919;28;20291;-70
2021/12/16 09:33:48;;;;;;;22.65;14.30;;;11.40;99.90;;;;;;4966142;28;20252;-69
2021/12/16 09:36:16;;;;;;;22.75;14.82;;;11.40;99.90;;;;;;4974867;28;20204;-69
2021/12/16 09:38:43;;;;;;;22.02;14.52;;;11.40;99.90;;;;;;4963243;28;20279;-68
2021/12/16 09:41:11;;;;;;;22.58;15.15;;;11.40;99.90;;;;;;4962673;28;20180;-69
2021/12/16 09:43:40;;;;;;;26.35;16.10;;;11.40;99.90;;;;;;4966534;28;20204;-69
2021/12/16 09:46:11;;;;;;;24.98;15.68;;;11.50;99.90;;;;;;4966292;28;20188;-69
2021/12/16 09:48:38;;;;;;;22.90;15.23;;;11.50;99.90;;;;;;4955772;28;20211;-68
2021/12/16 09:51:06;;;;;;;25.50;15.75;;;11.50;99.90;;;;;;4962225;28;20216;-69
2021/12/16 09:53:40;;;;;;;26.02;15.95;;;11.60;99.90;;;;;;4962435;28;20179;-69
2021/12/16 09:56:09;;;;;;;25.45;16.30;;;11.60;99.90;;;;;;4960261;28;20194;-69
2021/12/16 09:58:39;;;;;;;22.30;14.77;;;11.70;99.90;;;;;;4963329;28;20223;-69
2021/12/16 10:01:09;;;;;;;22.10;13.85;;;11.70;99.90;;;;;;4955630;28;20422;-69
2021/12/16 10:03:35;;;;;;;19.20;13.15;;;11.80;99.90;;;;;;4962259;28;20239;-70
2021/12/16 10:06:00;;;;;;;17.45;11.30;;;11.90;99.90;;;;;;4956397;28;20200;-69
2021/12/16 10:08:29;;;;;;;15.57;11.23;;;11.90;99.90;;;;;;4965387;28;20363;-69
2021/12/16 10:10:58;;;;;;;14.15;10.18;;;12.00;99.90;;;;;;4962741;28;20176;-70
2021/12/16 10:13:48;;;;;;;15.40;10.48;;;12.00;99.90;;;;;;4969026;28;20172;-70
2021/12/16 10:19:01;;;;;;;14.52;10.50;;;12.10;99.90;;;;;;4972181;28;20191;-69
2021/12/16 10:21:28;;;;;;;17.48;11.63;;;12.20;99.90;;;;;;4977977;28;20212;-69
2021/12/16 10:23:54;;;;;;;17.83;12.45;;;12.20;99.90;;;;;;4976451;28;20192;-69
2021/12/16 10:26:24;;;;;;;19.30;12.85;;;12.30;99.90;;;;;;4971538;28;20180;-70
2021/12/16 10:28:56;;;;;;;18.48;12.27;;;12.30;99.90;;;;;;4998380;28;20246;-69
2021/12/16 10:31:37;;;;;;;20.35;14.05;;;12.30;99.90;;;;;;4967370;28;20203;-70
2021/12/16 10:34:07;;;;;;;24.40;16.10;;;12.40;99.90;;;;;;4979259;28;20186;-69
2021/12/16 10:36:42;;;;;;;21.00;14.75;;;12.40;99.90;;;;;;4955253;28;20287;-70
2021/12/16 10:39:12;;;;;;;24.88;16.08;;;12.50;99.90;;;;;;4966926;28;20179;-69
2021/12/16 10:41:43;;;;;;;25.55;16.98;;;12.50;99.90;;;;;;4960373;28;20207;-70
2021/12/16 10:44:19;;;;;;;26.33;17.80;;;12.60;99.90;;;;;;4962565;28;20251;-72
2021/12/16 10:46:47;;;;;;;24.08;16.10;;;12.70;99.90;;;;;;4981431;28;20246;-73
2021/12/16 10:49:18;;;;;;;25.38;16.50;;;12.70;99.90;;;;;;4974460;28;20208;-68
2021/12/16 10:51:46;;;;;;;30.52;18.95;;;12.80;99.90;;;;;;4967334;28;20462;-69
2021/12/16 10:54:19;;;;;;;26.95;18.45;;;12.90;99.90;;;;;;4961649;28;20208;-70
2021/12/16 10:57:00;;;;;;;28.77;18.58;;;13.00;99.90;;;;;;4963147;28;20173;-70
2021/12/16 10:59:54;;;;;;;29.02;19.45;;;13.00;99.90;;;;;;4965303;28;20226;-70
2021/12/16 11:02:23;;;;;;;31.83;20.13;;;13.10;99.90;;;;;;4956385;28;20213;-69
2021/12/16 11:04:49;;;;;;;31.83;20.58;;;13.10;99.90;;;;;;4969296;28;20190;-69
2021/12/16 11:07:18;;;;;;;27.65;18.05;;;13.10;99.90;;;;;;4962066;28;20271;-70
2021/12/16 11:09:54;;;;;;;25.83;17.63;;;13.10;99.90;;;;;;4965683;28;20271;-70
2021/12/16 11:12:28;;;;;;;25.80;16.77;;;13.10;99.90;;;;;;4960495;28;20191;-68
2021/12/16 11:15:14;;;;;;;26.60;17.67;;;13.20;99.90;;;;;;4965380;28;20416;-69
2021/12/16 11:17:55;;;;;;;26.98;18.42;;;13.20;99.90;;;;;;4961181;28;20204;-69
2021/12/16 11:20:38;;;;;;;30.38;18.20;;;13.30;99.90;;;;;;4993232;28;20231;-68
2021/12/16 11:23:20;;;;;;;26.92;17.45;;;13.40;99.90;;;;;;4958247;28;20183;-69
2021/12/16 11:25:58;;;;;;;30.20;19.73;;;13.40;99.90;;;;;;4967071;28;20241;-69
2021/12/16 11:28:23;;;;;;;26.92;18.58;;;13.50;99.90;;;;;;4959689;28;20212;-69
2021/12/16 11:31:02;;;;;;;29.42;19.08;;;13.50;99.90;;;;;;4961492;28;20184;-68
2021/12/16 11:33:33;;;;;;;25.42;17.48;;;13.50;99.90;;;;;;4964776;28;20275;-68
2021/12/16 11:36:12;;;;;;;25.33;16.13;;;13.40;99.90;;;;;;4965184;28;20473;-69
2021/12/16 11:38:55;;;;;;;26.17;16.48;;;13.40;99.90;;;;;;4979779;28;20190;-70
2021/12/16 11:41:21;;;;;;;25.08;16.52;;;13.40;99.90;;;;;;4964355;28;20180;-70
2021/12/16 11:43:54;;;;;;;24.52;16.63;;;13.40;99.90;;;;;;4961662;28;20299;-69
2021/12/16 11:46:28;;;;;;;25.90;16.48;;;13.30;99.90;;;;;;4966126;28;20180;-69
2021/12/16 11:48:57;;;;;;;24.92;16.80;;;13.30;99.90;;;;;;4966283;28;20276;-69
2021/12/16 11:51:32;;;;;;;23.70;17.20;;;13.30;99.90;;;;;;4958413;28;20176;-69
2021/12/16 11:54:32;;;;;;;28.48;17.83;;;13.30;99.90;;;;;;4970611;28;20241;-68
2021/12/16 11:57:21;;;;;;;27.20;17.98;;;13.30;99.90;;;;;;4954444;28;20440;-70
2021/12/16 11:59:52;;;;;;;25.45;17.23;;;13.30;99.90;;;;;;5001562;28;20280;-70
2021/12/16 12:02:37;;;;;;;28.50;18.20;;;13.30;99.90;;;;;;4959269;28;20176;-69
2021/12/16 12:05:22;;;;;;;24.05;17.02;;;13.20;99.90;;;;;;4976442;28;20210;-71
2021/12/16 12:07:53;;;;;;;25.45;17.10;;;13.20;99.90;;;;;;4971195;28;20203;-69
2021/12/16 12:10:34;;;;;;;25.15;17.50;;;13.20;99.90;;;;;;4956265;28;20199;-69
2021/12/16 12:13:06;;;;;;;27.38;17.27;;;13.20;99.90;;;;;;4966662;28;20265;-70
2021/12/16 12:15:33;;;;;;;23.20;16.45;;;13.20;99.90;;;;;;4960245;28;20172;-70
2021/12/16 12:17:59;;;;;;;25.90;17.30;;;13.10;99.90;;;;;;4966242;28;20211;-70
2021/12/16 12:20:32;;;;;;;22.58;15.63;;;13.20;99.90;;;;;;4959577;28;20247;-71
2021/12/16 12:22:59;;;;;;;23.75;16.02;;;13.10;99.90;;;;;;4957166;28;20245;-70
2021/12/16 12:25:27;;;;;;;26.30;16.98;;;13.10;99.90;;;;;;4958895;28;20183;-69
2021/12/16 12:27:55;;;;;;;26.63;17.35;;;13.10;99.90;;;;;;4965363;28;20211;-70
2021/12/16 12:30:23;;;;;;;24.45;16.77;;;13.10;99.90;;;;;;4966443;28;20210;-71
2021/12/16 12:32:53;;;;;;;25.80;17.63;;;13.10;99.90;;;;;;4965875;28;20203;-70
2021/12/16 12:35:27;;;;;;;25.63;17.45;;;13.10;99.90;;;;;;4952640;28;20268;-70
2021/12/16 12:37:57;;;;;;;24.65;16.40;;;13.10;99.90;;;;;;4964761;28;20187;-70
2021/12/16 12:40:36;;;;;;;24.15;16.73;;;13.10;99.90;;;;;;4962409;28;20181;-72
2021/12/16 12:43:04;;;;;;;27.10;17.23;;;13.10;99.90;;;;;;4967201;28;20176;-71
2021/12/16 12:45:34;;;;;;;25.80;17.08;;;13.10;99.90;;;;;;4960805;28;20239;-70
2021/12/16 12:48:05;;;;;;;25.33;16.65;;;13.10;99.90;;;;;;4966127;28;20196;-70
2021/12/16 12:50:35;;;;;;;27.80;18.13;;;13.10;99.90;;;;;;4964500;28;20249;-69
2021/12/16 12:53:28;;;;;;;26.83;17.33;;;13.10;99.90;;;;;;4957022;28;20295;-70
2021/12/16 12:55:58;;;;;;;26.20;16.98;;;13.20;99.90;;;;;;4963025;28;20200;-71
2021/12/16 12:58:29;;;;;;;27.45;17.67;;;13.20;99.90;;;;;;4980863;28;20238;-70
2021/12/16 13:01:04;;;;;;;25.85;17.75;;;13.20;99.90;;;;;;4970339;28;20188;-71
2021/12/16 13:03:39;;;;;;;25.27;17.42;;;13.20;99.90;;;;;;4969350;28;20262;-69
2021/12/16 13:06:16;;;;;;;27.52;17.48;;;13.20;99.90;;;;;;4960678;28;20203;-69
2021/12/16 13:08:49;;;;;;;26.27;17.20;;;13.20;99.90;;;;;;4964326;28;20199;-69
2021/12/16 13:11:28;;;;;;;26.63;17.73;;;13.20;99.90;;;;;;4972981;28;20208;-69
2021/12/16 13:13:57;;;;;;;25.02;17.65;;;13.30;99.90;;;;;;4969218;28;20267;-71
2021/12/16 13:16:53;;;;;;;;;;;;;;;;;;;;;
2021/12/16 13:28:34;;;;;;;24.42;17.13;;;13.40;99.90;;;;;;4967179;28;20239;-70
2021/12/16 13:31:06;;;;;;;25.00;17.30;;;13.40;99.90;;;;;;4960669;28;20191;-70
2021/12/16 13:33:53;;;;;;;23.55;17.13;;;13.40;99.90;;;;;;4974866;28;20184;-70
2021/12/16 13:36:28;;;;;;;25.45;16.35;;;13.40;99.90;;;;;;4963391;28;20180;-71
2021/12/16 13:38:55;;;;;;;25.02;17.20;;;13.40;99.90;;;;;;4963514;28;20198;-69
2021/12/16 13:41:26;;;;;;;23.48;16.45;;;13.40;99.90;;;;;;5014674;28;20188;-69
2021/12/16 13:44:10;;;;;;;25.55;18.75;;;13.40;99.90;;;;;;4970145;28;20184;-71
2021/12/16 13:47:02;;;;;;;28.17;18.08;;;13.40;99.90;;;;;;4970756;28;20238;-71
2021/12/16 14:03:42;;;;;;;23.48;15.93;;;13.40;99.90;;;;;;4966140;28;20195;-71
2021/12/16 14:06:15;;;;;;;25.48;16.10;;;13.40;99.90;;;;;;4960778;28;20203;-69
2021/12/16 14:08:56;;;;;;;23.48;16.73;;;13.40;99.90;;;;;;4971313;28;20241;-69
2021/12/16 14:17:44;;;;;;;24.95;16.17;;;13.40;99.90;;;;;;4965142;28;20172;-68
2021/12/16 14:23:25;;;;;;;30.17;16.83;;;13.30;99.90;;;;;;4966238;28;20180;-69
2021/12/16 14:26:15;;;;;;;28.35;18.00;;;13.20;99.90;;;;;;4967531;28;20215;-70
2021/12/16 14:36:55;;;;;;;27.50;18.88;;;13.20;99.90;;;;;;4959575;28;20215;-69
2021/12/16 14:49:51;;;;;;;28.05;17.48;;;13.10;99.90;;;;;;4962797;28;20180;-69
2021/12/16 14:52:29;;;;;;;28.63;18.98;;;13.10;99.90;;;;;;4963420;28;20239;-70
2021/12/16 14:55:06;;;;;;;25.92;17.65;;;13.10;99.90;;;;;;4979456;28;20188;-69
2021/12/16 14:57:41;;;;;;;25.98;17.27;;;13.00;99.90;;;;;;4983597;28;20227;-69
2021/12/16 15:00:15;;;;;;;25.45;17.17;;;13.10;99.90;;;;;;4963687;28;20200;-68
2021/12/16 15:02:43;;;;;;;25.88;17.73;;;13.00;99.90;;;;;;4964292;28;20227;-78
2021/12/16 15:05:28;;;;;;;26.83;17.05;;;13.00;99.90;;;;;;4972426;28;20198;-79
2021/12/16 15:08:03;;;;;;;25.85;16.80;;;13.00;99.90;;;;;;4958306;28;20200;-74
2021/12/16 15:10:29;;;;;;;26.42;17.30;;;13.00;99.90;;;;;;4965209;28;20190;-79
2021/12/16 15:13:02;;;;;;;28.50;18.27;;;13.00;99.90;;;;;;4968911;28;20180;-79
2021/12/16 15:15:39;;;;;;;24.77;17.60;;;13.00;99.90;;;;;;4967911;28;20272;-79
2021/12/16 15:37:52;;;;;;;25.08;17.23;;;12.90;99.90;;;;;;4966821;28;20168;-78
2021/12/16 15:42:59;;;;;;;24.60;17.08;;;12.80;99.90;;;;;;4959379;28;20236;-78
2021/12/16 15:45:28;;;;;;;24.95;17.15;;;12.80;99.90;;;;;;5016152;28;20184;-78
2021/12/16 15:47:56;;;;;;;24.25;16.70;;;12.80;99.90;;;;;;4968307;28;20192;-80
2021/12/16 15:50:32;;;;;;;26.50;17.17;;;12.80;99.90;;;;;;5005009;28;20174;-79
2021/12/16 15:53:01;;;;;;;26.15;16.63;;;12.80;99.90;;;;;;4964292;28;20302;-78
2021/12/16 15:55:37;;;;;;;24.52;15.80;;;12.80;99.90;;;;;;4989174;28;20434;-79
2021/12/16 15:58:05;;;;;;;27.23;17.08;;;12.80;99.90;;;;;;5023929;28;20199;-79
2021/12/16 16:00:32;;;;;;;28.90;18.02;;;12.80;99.90;;;;;;4967895;28;20373;-80
2021/12/16 16:03:00;;;;;;;28.83;17.13;;;12.80;99.90;;;;;;4957631;28;20214;-80
2021/12/16 16:05:38;;;;;;;24.85;16.80;;;12.80;99.90;;;;;;4982366;28;20179;-77
2021/12/16 16:08:06;;;;;;;23.88;15.98;;;12.80;99.90;;;;;;4996286;28;20192;-80
2021/12/16 16:10:33;;;;;;;25.00;16.70;;;12.70;99.90;;;;;;4956956;28;20233;-76
2021/12/16 16:13:29;;;;;;;26.30;16.65;;;12.70;99.90;;;;;;4969133;28;20176;-81
2021/12/16 16:16:01;;;;;;;25.15;16.45;;;12.70;99.90;;;;;;4967994;28;20184;-80
2021/12/16 16:20:57;;;;;;;24.52;17.23;;;12.70;99.90;;;;;;4957420;28;20176;-78
2021/12/16 16:23:30;;;;;;;26.40;16.58;;;12.70;99.90;;;;;;4957999;28;20250;-80
2021/12/16 16:25:57;;;;;;;25.08;16.85;;;12.70;99.90;;;;;;4959494;28;20255;-79
2021/12/16 16:28:25;;;;;;;27.65;17.27;;;12.70;99.90;;;;;;4958896;28;20235;-76
2021/12/16 16:30:53;;;;;;;24.77;16.00;;;12.70;99.90;;;;;;4961573;28;20180;-78
2021/12/16 16:33:23;;;;;;;26.58;17.02;;;12.70;99.90;;;;;;4969934;28;20223;-80
2021/12/16 16:36:01;;;;;;;30.40;18.60;;;12.70;99.90;;;;;;4968161;28;20208;-80
2021/12/16 16:38:35;;;;;;;27.67;18.13;;;12.70;99.90;;;;;;4966247;28;20187;-79
2021/12/16 16:41:09;;;;;;;28.08;17.90;;;12.70;99.90;;;;;;4961912;28;20263;-81
2021/12/16 16:43:59;;;;;;;28.65;17.95;;;12.70;99.90;;;;;;4968391;28;20278;-78